MST,Max TemperatureF,Mean TemperatureF,Min TemperatureF,Max Dew PointF,MeanDew PointF,Min DewpointF,Max Humidity, Mean Humidity, Min Humidity, Max Sea Level PressureIn, Mean Sea Level PressureIn, Min Sea Level PressureIn, Max VisibilityMiles, Mean VisibilityMiles, Min VisibilityMiles, Max Wind SpeedMPH, Mean Wind SpeedMPH, Max Gust SpeedMPH,PrecipitationIn, CloudCover, Events, WindDirDegrees
2013-2-1,47,34,20,34,26,16,94,76,49,30.16,30.06,29.96,10,10,10,17,7,22,0.00,5,Rain,275
2013-2-2,52,39,26,29,24,19,91,63,28,30.26,30.21,30.15,10,10,10,28,12,33,0.00,1,,299
2013-2-3,53,36,18,26,22,16,91,64,30,30.24,30.00,29.83,10,10,10,16,5,23,0.00,0,,266
2013-2-4,57,40,22,25,21,16,83,53,21,29.95,29.88,29.79,10,10,10,16,8,20,0.00,0,,279
2013-2-5,55,40,25,26,24,21,83,52,29,30.05,29.94,29.86,10,10,10,18,8,21,0.00,1,,247
2013-2-6,61,46,32,30,25,18,70,50,19,30.04,29.84,29.76,10,10,10,17,6,21,0.00,5,,337
2013-2-7,51,36,21,33,22,12,94,59,21,30.15,30.10,30.04,10,10,10,20,10,25,0.01,1,,324
2013-2-8,57,38,20,25,20,13,77,51,27,30.11,29.92,29.76,10,10,10,24,7,34,0.00,1,,171
2013-2-9,53,37,21,29,23,16,92,64,27,29.76,29.58,29.40,10,9,0,30,8,34,0.00,3,Snow,73
2013-2-10,34,28,21,28,22,13,90,79,64,30.04,29.68,29.38,10,6,0,38,27,45,0.04,6,Snow,325
2013-2-11,31,22,12,18,13,8,89,70,50,30.12,30.07,30.03,10,10,10,17,7,22,0.00,0,,291
2013-2-12,40,24,7,24,14,4,89,68,39,30.05,30.00,29.97,10,10,10,16,7,18,0.00,1,,273
2013-2-13,51,34,18,33,23,14,89,62,33,29.99,29.90,29.83,10,10,10,28,11,36,0.00,1,Rain,287
2013-2-14,37,28,18,28,23,15,92,73,46,30.30,30.14,29.97,10,10,5,30,14,37,0.00,5,Snow,329
2013-2-15,31,22,12,21,14,10,90,75,45,30.31,30.29,30.22,10,10,10,17,7,22,0.00,4,Snow,300
2013-2-16,57,40,23,26,23,19,84,62,28,30.21,30.02,29.92,10,10,10,25,9,33,0.00,3,,278
2013-2-17,50,35,20,30,24,17,87,63,37,29.92,29.70,29.54,10,10,10,29,7,37,0.00,0,,278
2013-2-18,39,28,17,28,21,14,88,66,41,30.12,29.93,29.71,10,10,10,28,16,33,0.00,2,,332
2013-2-19,40,26,12,20,15,5,91,66,39,30.19,30.11,30.03,10,10,10,16,5,24,0.00,1,,126
2013-2-20,24,20,17,20,12,3,91,72,47,30.02,29.93,29.86,10,7,0,18,14,26,0.01,6,Snow,117
2013-2-21,20,17,14,18,15,12,90,86,77,29.91,29.88,29.84,10,3,0,16,10,18,0.02,8,Snow,52
2013-2-22,31,16,0,23,11,-5,91,83,68,29.96,29.91,29.86,10,9,2,8,3,,0.01,4,Snow,267
2013-2-23,36,20,4,25,15,1,91,79,61,29.87,29.74,29.66,10,9,5,15,6,,0.00,1,,257
2013-2-24,36,30,24,33,27,21,91,82,68,30.06,29.90,29.74,10,8,1,23,10,28,0.00,8,Snow,12
2013-2-25,36,24,10,26,21,8,91,80,60,30.08,29.99,29.87,10,10,10,16,8,,0.00,1,,299
2013-2-26,38,22,6,28,15,3,89,72,39,30.00,29.86,29.80,10,10,10,17,5,22,0.00,0,,315
2013-2-27,39,32,25,29,24,21,86,72,50,30.19,30.14,30.01,10,10,10,26,15,30,0.00,2,,332
2013-2-28,42,30,17,30,21,12,93,70,42,30.22,30.18,30.13,10,10,4,15,8,17,0.00,3,Snow,297